Chicken, AK (99732)

4:49 AM AKST on December 11, 2016 (GMT -0900)
Eagle | | Change Station

Elev 879 ft 64.78 °N, 141.15 °W | Updated 56 minutes ago

Clear
Clear
-21 °F
Feels Like -21 °F
N
0
Wind Variable Wind from North

Today
High -- | Low -- °F
--% Chance of Precip.
Yesterday
High -- | Low -- °F
Precip. -- in
Pressure 30.77 in
Visibility 10.0 miles
Clouds Clear
Dew Point -27 °F
Humidity 73%
Rainfall 0.00 in
Snow Depth Not available.
10:09 AM 2:32 PM
Waxing Gibbous, 91% visible
METAR PAEG 111253Z AUTO 00000KT 10SM CLR M29/M33 A3065 RMK AO2 SLP420 T12941328 TSNO
Pressure 30.77 in
Visibility 10.0 miles
Clouds Clear
Dew Point -27 °F
Humidity 73%
Rainfall 0.00 in
Snow Depth Not available.
10:09 AM 2:32 PM
Waxing Gibbous, 91% visible
METAR PAEG 111253Z AUTO 00000KT 10SM CLR M29/M33 A3065 RMK AO2 SLP420 T12941328 TSNO

10-Day Weather Forecast

Almanac

Astronomy

Dec. 11, 2016 Rise Set
Actual Time
Civil Twilight
Nautical Twilight
Astronomical Twilight
Moon
Length of Visible Light
Length of Day
Tomorrow will be .
, % of the Moon is Illuminated

Today's Extremes

State Highs State Lows

Community

WunderPhotos

Upload Photos

1,956,708 photos uploaded!

WunderBlog® & News

Nearby

Air Quality

  Air Quality AQ Index Pollutant
Not available.

Snow Depth

Station Depth Elevation

Earthquake Activity

City Distance Mag. Time & Date
Minimum magnitude displayed is 2.5.

Coastal Water Temperatures

Place Temperature

Stations

Nearby Weather Stations

Station Location Temp. Windchill Dew Point Humidity Wind Precip. Elev Updated Type
                   

Watches & Warnings

There are currently no watches in effect.